sensor_id;sensor_type;location;lat;lon;timestamp;P1;durP1;ratioP1;P2;durP2;ratioP2
2650;SDS011;1335;48.180;16.342;2024-03-08T00:02:19;48.70;;;29.40;;
2650;SDS011;1335;48.180;16.342;2024-03-08T00:04:46;38.40;;;27.10;;
2650;SDS011;1335;48.180;16.342;2024-03-08T00:07:13;41.57;;;26.50;;
2650;SDS011;1335;48.180;16.342;2024-03-08T00:09:41;40.67;;;26.43;;
2650;SDS011;1335;48.180;16.342;2024-03-08T00:12:08;41.30;;;24.80;;
2650;SDS011;1335;48.180;16.342;2024-03-08T00:14:35;40.57;;;26.07;;
2650;SDS011;1335;48.180;16.342;2024-03-08T00:17:05;42.43;;;28.70;;
2650;SDS011;1335;48.180;16.342;2024-03-08T00:19:34;39.27;;;27.13;;
2650;SDS011;1335;48.180;16.342;2024-03-08T00:22:02;43.17;;;26.20;;
2650;SDS011;1335;48.180;16.342;2024-03-08T00:24:29;41.20;;;26.73;;
2650;SDS011;1335;48.180;16.342;2024-03-08T00:26:56;38.17;;;26.17;;
2650;SDS011;1335;48.180;16.342;2024-03-08T00:29:23;41.63;;;27.63;;
2650;SDS011;1335;48.180;16.342;2024-03-08T00:31:52;44.33;;;26.80;;
2650;SDS011;1335;48.180;16.342;2024-03-08T00:34:21;39.97;;;27.20;;
2650;SDS011;1335;48.180;16.342;2024-03-08T00:36:48;39.90;;;26.17;;
2650;SDS011;1335;48.180;16.342;2024-03-08T00:39:17;41.83;;;26.77;;
2650;SDS011;1335;48.180;16.342;2024-03-08T00:41:45;39.13;;;27.80;;
2650;SDS011;1335;48.180;16.342;2024-03-08T00:44:12;44.43;;;26.00;;
2650;SDS011;1335;48.180;16.342;2024-03-08T00:46:40;43.50;;;24.97;;
2650;SDS011;1335;48.180;16.342;2024-03-08T00:49:07;41.60;;;26.50;;
2650;SDS011;1335;48.180;16.342;2024-03-08T00:51:36;44.23;;;27.20;;
2650;SDS011;1335;48.180;16.342;2024-03-08T00:54:04;45.60;;;30.30;;
2650;SDS011;1335;48.180;16.342;2024-03-08T00:56:31;37.37;;;27.83;;
2650;SDS011;1335;48.180;16.342;2024-03-08T00:58:59;41.50;;;27.30;;
2650;SDS011;1335;48.180;16.342;2024-03-08T01:01:27;50.00;;;28.47;;
2650;SDS011;1335;48.180;16.342;2024-03-08T01:03:54;44.23;;;28.03;;
2650;SDS011;1335;48.180;16.342;2024-03-08T01:06:23;46.97;;;29.30;;
2650;SDS011;1335;48.180;16.342;2024-03-08T01:08:52;45.77;;;28.80;;
2650;SDS011;1335;48.180;16.342;2024-03-08T01:11:19;41.27;;;27.53;;
2650;SDS011;1335;48.180;16.342;2024-03-08T01:13:46;48.80;;;29.80;;
2650;SDS011;1335;48.180;16.342;2024-03-08T01:16:14;43.90;;;26.90;;
2650;SDS011;1335;48.180;16.342;2024-03-08T01:18:43;40.27;;;27.70;;
2650;SDS011;1335;48.180;16.342;2024-03-08T01:21:10;40.50;;;26.60;;
2650;SDS011;1335;48.180;16.342;2024-03-08T01:23:38;45.40;;;29.20;;
2650;SDS011;1335;48.180;16.342;2024-03-08T01:26:06;42.60;;;29.10;;
2650;SDS011;1335;48.180;16.342;2024-03-08T01:28:34;42.63;;;28.37;;
2650;SDS011;1335;48.180;16.342;2024-03-08T01:31:01;44.80;;;29.63;;
2650;SDS011;1335;48.180;16.342;2024-03-08T01:33:29;43.43;;;26.67;;
2650;SDS011;1335;48.180;16.342;2024-03-08T01:35:56;44.63;;;29.43;;
2650;SDS011;1335;48.180;16.342;2024-03-08T01:38:24;49.67;;;30.67;;
2650;SDS011;1335;48.180;16.342;2024-03-08T01:40:51;47.20;;;29.63;;
2650;SDS011;1335;48.180;16.342;2024-03-08T01:43:20;45.63;;;29.50;;
2650;SDS011;1335;48.180;16.342;2024-03-08T01:45:48;44.40;;;28.50;;
2650;SDS011;1335;48.180;16.342;2024-03-08T01:48:15;46.83;;;28.97;;
2650;SDS011;1335;48.180;16.342;2024-03-08T01:50:43;46.83;;;29.07;;
2650;SDS011;1335;48.180;16.342;2024-03-08T01:53:11;46.63;;;29.33;;
2650;SDS011;1335;48.180;16.342;2024-03-08T01:55:40;45.43;;;27.10;;
2650;SDS011;1335;48.180;16.342;2024-03-08T01:58:08;49.37;;;30.60;;
2650;SDS011;1335;48.180;16.342;2024-03-08T02:00:38;49.57;;;29.13;;
2650;SDS011;1335;48.180;16.342;2024-03-08T02:03:06;48.33;;;30.13;;
2650;SDS011;1335;48.180;16.342;2024-03-08T02:05:33;51.90;;;31.07;;
2650;SDS011;1335;48.180;16.342;2024-03-08T02:08:01;46.60;;;30.90;;
2650;SDS011;1335;48.180;16.342;2024-03-08T02:10:28;46.80;;;29.00;;
2650;SDS011;1335;48.180;16.342;2024-03-08T02:12:57;50.17;;;30.10;;
2650;SDS011;1335;48.180;16.342;2024-03-08T02:15:24;46.73;;;30.53;;
2650;SDS011;1335;48.180;16.342;2024-03-08T02:17:53;51.10;;;30.63;;
2650;SDS011;1335;48.180;16.342;2024-03-08T02:20:21;40.33;;;27.97;;
2650;SDS011;1335;48.180;16.342;2024-03-08T02:22:49;47.50;;;29.40;;
2650;SDS011;1335;48.180;16.342;2024-03-08T02:25:17;45.90;;;29.53;;
2650;SDS011;1335;48.180;16.342;2024-03-08T02:27:45;41.10;;;27.47;;
2650;SDS011;1335;48.180;16.342;2024-03-08T02:30:12;43.90;;;29.60;;
2650;SDS011;1335;48.180;16.342;2024-03-08T02:32:40;47.00;;;31.70;;
2650;SDS011;1335;48.180;16.342;2024-03-08T02:35:07;44.07;;;29.73;;
2650;SDS011;1335;48.180;16.342;2024-03-08T02:37:35;43.57;;;28.70;;
2650;SDS011;1335;48.180;16.342;2024-03-08T02:40:05;47.90;;;30.03;;
2650;SDS011;1335;48.180;16.342;2024-03-08T02:42:32;51.80;;;30.13;;
2650;SDS011;1335;48.180;16.342;2024-03-08T02:45:00;45.73;;;30.03;;
2650;SDS011;1335;48.180;16.342;2024-03-08T02:47:27;49.13;;;30.87;;
2650;SDS011;1335;48.180;16.342;2024-03-08T02:49:56;50.10;;;30.83;;
2650;SDS011;1335;48.180;16.342;2024-03-08T02:52:23;44.80;;;29.00;;
2650;SDS011;1335;48.180;16.342;2024-03-08T02:54:50;43.23;;;28.73;;
2650;SDS011;1335;48.180;16.342;2024-03-08T02:57:19;44.80;;;30.33;;
2650;SDS011;1335;48.180;16.342;2024-03-08T02:59:47;46.47;;;30.07;;
2650;SDS011;1335;48.180;16.342;2024-03-08T03:02:15;44.50;;;29.97;;
2650;SDS011;1335;48.180;16.342;2024-03-08T03:04:42;50.27;;;30.60;;
2650;SDS011;1335;48.180;16.342;2024-03-08T03:07:10;50.27;;;30.70;;
2650;SDS011;1335;48.180;16.342;2024-03-08T03:09:37;48.70;;;29.80;;
2650;SDS011;1335;48.180;16.342;2024-03-08T03:12:04;49.17;;;30.77;;
2650;SDS011;1335;48.180;16.342;2024-03-08T03:14:36;54.27;;;32.73;;
2650;SDS011;1335;48.180;16.342;2024-03-08T03:17:04;50.90;;;33.50;;
2650;SDS011;1335;48.180;16.342;2024-03-08T03:19:32;44.10;;;29.33;;
2650;SDS011;1335;48.180;16.342;2024-03-08T03:22:01;50.77;;;31.70;;
2650;SDS011;1335;48.180;16.342;2024-03-08T03:24:32;50.93;;;32.90;;
2650;SDS011;1335;48.180;16.342;2024-03-08T03:27:01;49.23;;;31.23;;
2650;SDS011;1335;48.180;16.342;2024-03-08T03:29:37;51.50;;;31.97;;
2650;SDS011;1335;48.180;16.342;2024-03-08T03:32:05;50.87;;;32.37;;
2650;SDS011;1335;48.180;16.342;2024-03-08T03:34:33;47.53;;;31.30;;
2650;SDS011;1335;48.180;16.342;2024-03-08T03:37:01;50.50;;;32.77;;
2650;SDS011;1335;48.180;16.342;2024-03-08T03:39:28;48.07;;;30.60;;
2650;SDS011;1335;48.180;16.342;2024-03-08T03:41:57;51.50;;;31.53;;
2650;SDS011;1335;48.180;16.342;2024-03-08T03:44:24;46.80;;;30.40;;
2650;SDS011;1335;48.180;16.342;2024-03-08T03:46:53;46.50;;;30.00;;
2650;SDS011;1335;48.180;16.342;2024-03-08T03:49:20;48.87;;;32.23;;
2650;SDS011;1335;48.180;16.342;2024-03-08T03:51:48;52.83;;;31.13;;
2650;SDS011;1335;48.180;16.342;2024-03-08T03:54:16;47.63;;;30.90;;
2650;SDS011;1335;48.180;16.342;2024-03-08T03:56:44;49.97;;;30.87;;
2650;SDS011;1335;48.180;16.342;2024-03-08T03:59:11;43.63;;;30.13;;
2650;SDS011;1335;48.180;16.342;2024-03-08T04:01:41;45.00;;;29.60;;
2650;SDS011;1335;48.180;16.342;2024-03-08T04:04:10;50.20;;;31.40;;
2650;SDS011;1335;48.180;16.342;2024-03-08T04:06:38;47.90;;;30.00;;
2650;SDS011;1335;48.180;16.342;2024-03-08T04:09:06;49.30;;;31.07;;
2650;SDS011;1335;48.180;16.342;2024-03-08T04:11:34;43.50;;;30.60;;
2650;SDS011;1335;48.180;16.342;2024-03-08T04:14:02;51.90;;;32.73;;
2650;SDS011;1335;48.180;16.342;2024-03-08T04:16:30;48.60;;;30.93;;
2650;SDS011;1335;48.180;16.342;2024-03-08T04:18:57;47.57;;;32.13;;
2650;SDS011;1335;48.180;16.342;2024-03-08T04:21:26;51.70;;;31.40;;
2650;SDS011;1335;48.180;16.342;2024-03-08T04:23:53;48.03;;;31.20;;
2650;SDS011;1335;48.180;16.342;2024-03-08T04:26:21;60.50;;;31.50;;
2650;SDS011;1335;48.180;16.342;2024-03-08T04:28:48;47.83;;;31.77;;
2650;SDS011;1335;48.180;16.342;2024-03-08T04:31:15;52.90;;;31.77;;
2650;SDS011;1335;48.180;16.342;2024-03-08T04:33:43;46.93;;;31.43;;
2650;SDS011;1335;48.180;16.342;2024-03-08T04:36:10;48.93;;;30.83;;
2650;SDS011;1335;48.180;16.342;2024-03-08T04:38:40;45.87;;;32.10;;
2650;SDS011;1335;48.180;16.342;2024-03-08T04:41:07;51.50;;;32.10;;
2650;SDS011;1335;48.180;16.342;2024-03-08T04:43:35;50.70;;;33.00;;
2650;SDS011;1335;48.180;16.342;2024-03-08T04:46:02;55.97;;;32.10;;
2650;SDS011;1335;48.180;16.342;2024-03-08T04:48:30;51.00;;;32.67;;
2650;SDS011;1335;48.180;16.342;2024-03-08T04:50:58;50.70;;;32.50;;
2650;SDS011;1335;48.180;16.342;2024-03-08T04:53:25;50.70;;;30.20;;
2650;SDS011;1335;48.180;16.342;2024-03-08T04:55:54;48.60;;;29.90;;
2650;SDS011;1335;48.180;16.342;2024-03-08T04:58:23;60.47;;;35.47;;
2650;SDS011;1335;48.180;16.342;2024-03-08T05:00:50;57.00;;;35.47;;
2650;SDS011;1335;48.180;16.342;2024-03-08T05:03:17;54.70;;;34.77;;
2650;SDS011;1335;48.180;16.342;2024-03-08T05:05:46;50.30;;;30.90;;
2650;SDS011;1335;48.180;16.342;2024-03-08T05:08:13;48.33;;;32.13;;
2650;SDS011;1335;48.180;16.342;2024-03-08T05:10:43;49.83;;;32.60;;
2650;SDS011;1335;48.180;16.342;2024-03-08T05:13:13;49.50;;;30.27;;
2650;SDS011;1335;48.180;16.342;2024-03-08T05:15:41;45.77;;;30.47;;
2650;SDS011;1335;48.180;16.342;2024-03-08T05:18:09;50.77;;;31.87;;
2650;SDS011;1335;48.180;16.342;2024-03-08T05:20:39;51.63;;;31.40;;
2650;SDS011;1335;48.180;16.342;2024-03-08T05:23:07;48.93;;;31.30;;
2650;SDS011;1335;48.180;16.342;2024-03-08T05:25:34;51.27;;;31.50;;
2650;SDS011;1335;48.180;16.342;2024-03-08T05:28:02;47.53;;;30.60;;
2650;SDS011;1335;48.180;16.342;2024-03-08T05:30:31;51.33;;;31.30;;
2650;SDS011;1335;48.180;16.342;2024-03-08T05:32:58;49.73;;;29.73;;
2650;SDS011;1335;48.180;16.342;2024-03-08T05:35:26;45.83;;;30.40;;
2650;SDS011;1335;48.180;16.342;2024-03-08T05:37:53;51.83;;;32.67;;
2650;SDS011;1335;48.180;16.342;2024-03-08T05:40:20;50.60;;;33.00;;
2650;SDS011;1335;48.180;16.342;2024-03-08T05:42:48;49.37;;;31.27;;
2650;SDS011;1335;48.180;16.342;2024-03-08T05:45:15;43.53;;;29.30;;
2650;SDS011;1335;48.180;16.342;2024-03-08T05:47:44;50.57;;;31.20;;
2650;SDS011;1335;48.180;16.342;2024-03-08T05:50:11;52.47;;;31.73;;
2650;SDS011;1335;48.180;16.342;2024-03-08T05:52:41;48.93;;;31.80;;
2650;SDS011;1335;48.180;16.342;2024-03-08T05:55:08;57.53;;;32.70;;
2650;SDS011;1335;48.180;16.342;2024-03-08T05:57:35;55.07;;;33.03;;
2650;SDS011;1335;48.180;16.342;2024-03-08T06:00:05;53.70;;;32.77;;
2650;SDS011;1335;48.180;16.342;2024-03-08T06:02:32;53.00;;;33.27;;
2650;SDS011;1335;48.180;16.342;2024-03-08T06:05:05;56.33;;;33.17;;
2650;SDS011;1335;48.180;16.342;2024-03-08T06:07:33;48.97;;;31.63;;
2650;SDS011;1335;48.180;16.342;2024-03-08T06:10:00;52.03;;;33.00;;
2650;SDS011;1335;48.180;16.342;2024-03-08T06:12:28;50.13;;;30.40;;
2650;SDS011;1335;48.180;16.342;2024-03-08T06:14:58;50.17;;;33.30;;
2650;SDS011;1335;48.180;16.342;2024-03-08T06:17:26;51.37;;;33.70;;
2650;SDS011;1335;48.180;16.342;2024-03-08T06:19:53;50.77;;;32.13;;
2650;SDS011;1335;48.180;16.342;2024-03-08T06:22:22;53.93;;;32.60;;
2650;SDS011;1335;48.180;16.342;2024-03-08T06:24:49;46.73;;;31.07;;
2650;SDS011;1335;48.180;16.342;2024-03-08T06:27:19;54.03;;;33.07;;
2650;SDS011;1335;48.180;16.342;2024-03-08T06:29:46;52.17;;;33.37;;
2650;SDS011;1335;48.180;16.342;2024-03-08T06:32:14;51.57;;;33.10;;
2650;SDS011;1335;48.180;16.342;2024-03-08T06:34:41;47.60;;;30.30;;
2650;SDS011;1335;48.180;16.342;2024-03-08T06:37:09;52.07;;;32.00;;
2650;SDS011;1335;48.180;16.342;2024-03-08T06:39:37;49.10;;;30.10;;
2650;SDS011;1335;48.180;16.342;2024-03-08T06:42:05;49.43;;;30.57;;
2650;SDS011;1335;48.180;16.342;2024-03-08T06:44:34;58.90;;;33.90;;
2650;SDS011;1335;48.180;16.342;2024-03-08T06:47:03;47.10;;;30.10;;
2650;SDS011;1335;48.180;16.342;2024-03-08T06:49:31;46.47;;;30.13;;
2650;SDS011;1335;48.180;16.342;2024-03-08T06:51:58;46.43;;;31.97;;
2650;SDS011;1335;48.180;16.342;2024-03-08T06:54:26;46.57;;;30.10;;
2650;SDS011;1335;48.180;16.342;2024-03-08T06:56:54;53.37;;;33.50;;
2650;SDS011;1335;48.180;16.342;2024-03-08T06:59:22;52.43;;;31.33;;
2650;SDS011;1335;48.180;16.342;2024-03-08T07:01:49;46.42;;;29.92;;
2650;SDS011;1335;48.180;16.342;2024-03-08T07:04:19;45.90;;;31.13;;
2650;SDS011;1335;48.180;16.342;2024-03-08T07:06:46;54.23;;;31.17;;
2650;SDS011;1335;48.180;16.342;2024-03-08T07:09:14;48.80;;;31.20;;
2650;SDS011;1335;48.180;16.342;2024-03-08T07:11:43;47.10;;;28.80;;
2650;SDS011;1335;48.180;16.342;2024-03-08T07:14:13;50.17;;;31.50;;
2650;SDS011;1335;48.180;16.342;2024-03-08T07:16:41;46.23;;;30.40;;
2650;SDS011;1335;48.180;16.342;2024-03-08T07:19:09;48.73;;;30.80;;
2650;SDS011;1335;48.180;16.342;2024-03-08T07:21:37;44.87;;;30.20;;
2650;SDS011;1335;48.180;16.342;2024-03-08T07:24:04;52.70;;;31.00;;
2650;SDS011;1335;48.180;16.342;2024-03-08T07:26:55;55.27;;;32.80;;
2650;SDS011;1335;48.180;16.342;2024-03-08T07:29:24;52.63;;;31.30;;
2650;SDS011;1335;48.180;16.342;2024-03-08T07:31:52;51.50;;;33.27;;
2650;SDS011;1335;48.180;16.342;2024-03-08T07:34:27;48.53;;;30.40;;
2650;SDS011;1335;48.180;16.342;2024-03-08T07:36:57;53.60;;;29.43;;
2650;SDS011;1335;48.180;16.342;2024-03-08T07:39:24;47.37;;;30.63;;
2650;SDS011;1335;48.180;16.342;2024-03-08T07:41:51;51.50;;;29.37;;
2650;SDS011;1335;48.180;16.342;2024-03-08T07:44:19;52.10;;;32.47;;
2650;SDS011;1335;48.180;16.342;2024-03-08T07:46:48;50.03;;;30.70;;
2650;SDS011;1335;48.180;16.342;2024-03-08T07:49:15;52.00;;;32.10;;
2650;SDS011;1335;48.180;16.342;2024-03-08T07:51:43;52.73;;;33.50;;
2650;SDS011;1335;48.180;16.342;2024-03-08T07:54:10;54.27;;;32.93;;
2650;SDS011;1335;48.180;16.342;2024-03-08T07:56:38;50.33;;;33.77;;
2650;SDS011;1335;48.180;16.342;2024-03-08T07:59:05;55.93;;;33.43;;
2650;SDS011;1335;48.180;16.342;2024-03-08T08:01:33;54.17;;;32.97;;
2650;SDS011;1335;48.180;16.342;2024-03-08T08:04:01;63.43;;;32.90;;
2650;SDS011;1335;48.180;16.342;2024-03-08T08:06:29;61.20;;;34.93;;
2650;SDS011;1335;48.180;16.342;2024-03-08T08:08:58;56.87;;;34.63;;
2650;SDS011;1335;48.180;16.342;2024-03-08T08:11:25;56.23;;;34.10;;
2650;SDS011;1335;48.180;16.342;2024-03-08T08:13:53;62.37;;;36.53;;
2650;SDS011;1335;48.180;16.342;2024-03-08T08:16:22;62.80;;;36.03;;
2650;SDS011;1335;48.180;16.342;2024-03-08T08:18:50;56.80;;;34.97;;
2650;SDS011;1335;48.180;16.342;2024-03-08T08:21:19;58.87;;;35.30;;
2650;SDS011;1335;48.180;16.342;2024-03-08T08:23:47;56.73;;;33.30;;
2650;SDS011;1335;48.180;16.342;2024-03-08T08:26:14;61.97;;;33.27;;
2650;SDS011;1335;48.180;16.342;2024-03-08T08:28:42;66.70;;;34.53;;
2650;SDS011;1335;48.180;16.342;2024-03-08T08:31:11;59.83;;;34.23;;
2650;SDS011;1335;48.180;16.342;2024-03-08T08:33:38;58.00;;;34.43;;
2650;SDS011;1335;48.180;16.342;2024-03-08T08:36:06;66.63;;;36.50;;
2650;SDS011;1335;48.180;16.342;2024-03-08T08:38:35;62.83;;;34.80;;
2650;SDS011;1335;48.180;16.342;2024-03-08T08:41:03;71.53;;;35.73;;
2650;SDS011;1335;48.180;16.342;2024-03-08T08:43:31;68.43;;;37.73;;
2650;SDS011;1335;48.180;16.342;2024-03-08T08:45:59;64.33;;;35.07;;
2650;SDS011;1335;48.180;16.342;2024-03-08T08:48:26;64.82;;;36.20;;
2650;SDS011;1335;48.180;16.342;2024-03-08T08:50:54;62.33;;;38.40;;
2650;SDS011;1335;48.180;16.342;2024-03-08T08:53:21;61.70;;;36.37;;
2650;SDS011;1335;48.180;16.342;2024-03-08T08:55:50;63.63;;;37.90;;
2650;SDS011;1335;48.180;16.342;2024-03-08T08:58:18;62.70;;;36.30;;
2650;SDS011;1335;48.180;16.342;2024-03-08T09:00:45;69.73;;;35.20;;
2650;SDS011;1335;48.180;16.342;2024-03-08T09:03:13;66.77;;;34.40;;
2650;SDS011;1335;48.180;16.342;2024-03-08T09:05:42;71.43;;;35.40;;
2650;SDS011;1335;48.180;16.342;2024-03-08T09:08:09;66.33;;;35.13;;
2650;SDS011;1335;48.180;16.342;2024-03-08T09:10:38;69.37;;;35.33;;
2650;SDS011;1335;48.180;16.342;2024-03-08T09:13:06;69.32;;;37.22;;
2650;SDS011;1335;48.180;16.342;2024-03-08T09:15:35;80.33;;;41.57;;
2650;SDS011;1335;48.180;16.342;2024-03-08T09:18:05;82.60;;;38.67;;
2650;SDS011;1335;48.180;16.342;2024-03-08T09:20:34;70.17;;;37.63;;
2650;SDS011;1335;48.180;16.342;2024-03-08T09:23:02;73.13;;;36.50;;
2650;SDS011;1335;48.180;16.342;2024-03-08T09:25:30;83.93;;;39.30;;
2650;SDS011;1335;48.180;16.342;2024-03-08T09:27:57;82.33;;;41.67;;
2650;SDS011;1335;48.180;16.342;2024-03-08T09:30:26;74.27;;;37.40;;
2650;SDS011;1335;48.180;16.342;2024-03-08T09:32:54;74.20;;;37.20;;
2650;SDS011;1335;48.180;16.342;2024-03-08T09:35:21;67.20;;;34.37;;
2650;SDS011;1335;48.180;16.342;2024-03-08T09:37:48;71.17;;;35.50;;
2650;SDS011;1335;48.180;16.342;2024-03-08T09:40:16;73.80;;;36.30;;
2650;SDS011;1335;48.180;16.342;2024-03-08T09:42:44;70.93;;;35.37;;
2650;SDS011;1335;48.180;16.342;2024-03-08T09:45:12;71.83;;;37.43;;
2650;SDS011;1335;48.180;16.342;2024-03-08T09:47:42;68.30;;;35.63;;
2650;SDS011;1335;48.180;16.342;2024-03-08T09:50:10;70.60;;;33.60;;
2650;SDS011;1335;48.180;16.342;2024-03-08T09:52:38;67.73;;;34.73;;
2650;SDS011;1335;48.180;16.342;2024-03-08T09:55:05;71.90;;;32.73;;
2650;SDS011;1335;48.180;16.342;2024-03-08T09:57:33;67.53;;;32.67;;
2650;SDS011;1335;48.180;16.342;2024-03-08T10:00:02;57.03;;;32.60;;
2650;SDS011;1335;48.180;16.342;2024-03-08T10:02:33;57.47;;;31.37;;
2650;SDS011;1335;48.180;16.342;2024-03-08T10:05:03;62.17;;;31.83;;
2650;SDS011;1335;48.180;16.342;2024-03-08T10:07:30;58.97;;;30.47;;
2650;SDS011;1335;48.180;16.342;2024-03-08T10:09:59;55.47;;;29.77;;
2650;SDS011;1335;48.180;16.342;2024-03-08T10:12:26;56.80;;;28.90;;
2650;SDS011;1335;48.180;16.342;2024-03-08T10:14:54;54.53;;;27.83;;
2650;SDS011;1335;48.180;16.342;2024-03-08T10:17:22;62.33;;;29.07;;
2650;SDS011;1335;48.180;16.342;2024-03-08T10:19:49;57.77;;;29.00;;
2650;SDS011;1335;48.180;16.342;2024-03-08T10:22:19;59.37;;;30.60;;
2650;SDS011;1335;48.180;16.342;2024-03-08T10:24:46;56.93;;;29.40;;
2650;SDS011;1335;48.180;16.342;2024-03-08T10:27:14;58.23;;;29.73;;
2650;SDS011;1335;48.180;16.342;2024-03-08T10:29:45;49.17;;;25.93;;
2650;SDS011;1335;48.180;16.342;2024-03-08T10:32:13;50.97;;;25.30;;
2650;SDS011;1335;48.180;16.342;2024-03-08T10:34:40;47.40;;;25.97;;
2650;SDS011;1335;48.180;16.342;2024-03-08T10:37:09;46.30;;;27.00;;
2650;SDS011;1335;48.180;16.342;2024-03-08T10:39:44;39.60;;;22.87;;
2650;SDS011;1335;48.180;16.342;2024-03-08T10:42:14;36.70;;;21.60;;
2650;SDS011;1335;48.180;16.342;2024-03-08T10:44:48;32.67;;;19.60;;
2650;SDS011;1335;48.180;16.342;2024-03-08T10:47:17;33.83;;;20.77;;
2650;SDS011;1335;48.180;16.342;2024-03-08T10:49:51;31.27;;;21.20;;
2650;SDS011;1335;48.180;16.342;2024-03-08T10:52:18;31.67;;;20.17;;
2650;SDS011;1335;48.180;16.342;2024-03-08T10:54:48;40.93;;;21.40;;
2650;SDS011;1335;48.180;16.342;2024-03-08T10:57:17;31.63;;;20.47;;
2650;SDS011;1335;48.180;16.342;2024-03-08T10:59:47;37.83;;;19.17;;
2650;SDS011;1335;48.180;16.342;2024-03-08T11:02:14;28.40;;;19.00;;
2650;SDS011;1335;48.180;16.342;2024-03-08T11:04:45;25.90;;;18.33;;
2650;SDS011;1335;48.180;16.342;2024-03-08T11:07:14;22.60;;;15.27;;
2650;SDS011;1335;48.180;16.342;2024-03-08T11:09:44;22.20;;;15.63;;
2650;SDS011;1335;48.180;16.342;2024-03-08T11:12:19;25.63;;;16.90;;
2650;SDS011;1335;48.180;16.342;2024-03-08T11:14:47;28.30;;;18.63;;
2650;SDS011;1335;48.180;16.342;2024-03-08T11:17:15;22.70;;;14.67;;
2650;SDS011;1335;48.180;16.342;2024-03-08T11:19:47;23.07;;;14.80;;
2650;SDS011;1335;48.180;16.342;2024-03-08T11:22:20;22.00;;;15.50;;
2650;SDS011;1335;48.180;16.342;2024-03-08T11:24:48;24.33;;;16.20;;
2650;SDS011;1335;48.180;16.342;2024-03-08T11:27:16;23.83;;;16.40;;
2650;SDS011;1335;48.180;16.342;2024-03-08T11:29:46;22.47;;;14.70;;
2650;SDS011;1335;48.180;16.342;2024-03-08T11:32:27;18.00;;;12.00;;
2650;SDS011;1335;48.180;16.342;2024-03-08T11:34:55;23.93;;;14.30;;
2650;SDS011;1335;48.180;16.342;2024-03-08T11:37:22;18.27;;;12.83;;
2650;SDS011;1335;48.180;16.342;2024-03-08T11:39:50;18.17;;;13.23;;
2650;SDS011;1335;48.180;16.342;2024-03-08T11:42:18;17.27;;;12.17;;
2650;SDS011;1335;48.180;16.342;2024-03-08T11:44:47;13.43;;;10.27;;
2650;SDS011;1335;48.180;16.342;2024-03-08T11:47:15;17.13;;;12.00;;
2650;SDS011;1335;48.180;16.342;2024-03-08T11:49:42;22.83;;;12.90;;
2650;SDS011;1335;48.180;16.342;2024-03-08T11:52:12;18.07;;;13.00;;
2650;SDS011;1335;48.180;16.342;2024-03-08T11:54:40;17.27;;;12.13;;
2650;SDS011;1335;48.180;16.342;2024-03-08T11:57:08;17.90;;;11.50;;
2650;SDS011;1335;48.180;16.342;2024-03-08T11:59:36;17.57;;;13.03;;
2650;SDS011;1335;48.180;16.342;2024-03-08T12:02:05;18.27;;;12.03;;
2650;SDS011;1335;48.180;16.342;2024-03-08T12:04:35;16.57;;;10.60;;
2650;SDS011;1335;48.180;16.342;2024-03-08T12:07:03;16.63;;;12.80;;
2650;SDS011;1335;48.180;16.342;2024-03-08T12:09:35;16.47;;;10.97;;
2650;SDS011;1335;48.180;16.342;2024-03-08T12:12:02;15.17;;;12.10;;
2650;SDS011;1335;48.180;16.342;2024-03-08T12:14:31;16.73;;;12.80;;
2650;SDS011;1335;48.180;16.342;2024-03-08T12:16:58;18.73;;;13.53;;
2650;SDS011;1335;48.180;16.342;2024-03-08T12:19:27;16.70;;;12.47;;
2650;SDS011;1335;48.180;16.342;2024-03-08T12:21:55;15.97;;;12.20;;
2650;SDS011;1335;48.180;16.342;2024-03-08T12:24:22;18.20;;;12.37;;
2650;SDS011;1335;48.180;16.342;2024-03-08T12:26:51;18.37;;;12.60;;
2650;SDS011;1335;48.180;16.342;2024-03-08T12:29:19;16.63;;;12.70;;
2650;SDS011;1335;48.180;16.342;2024-03-08T12:31:47;19.07;;;13.70;;
2650;SDS011;1335;48.180;16.342;2024-03-08T12:34:15;18.43;;;12.83;;
2650;SDS011;1335;48.180;16.342;2024-03-08T12:36:47;16.60;;;12.10;;
2650;SDS011;1335;48.180;16.342;2024-03-08T12:39:17;17.00;;;13.47;;
2650;SDS011;1335;48.180;16.342;2024-03-08T12:41:47;21.00;;;14.60;;
2650;SDS011;1335;48.180;16.342;2024-03-08T12:44:16;18.77;;;12.93;;
2650;SDS011;1335;48.180;16.342;2024-03-08T12:46:46;20.33;;;13.30;;
2650;SDS011;1335;48.180;16.342;2024-03-08T12:49:14;19.60;;;12.77;;
2650;SDS011;1335;48.180;16.342;2024-03-08T12:51:43;19.10;;;12.00;;
2650;SDS011;1335;48.180;16.342;2024-03-08T12:54:11;17.77;;;12.23;;
2650;SDS011;1335;48.180;16.342;2024-03-08T12:56:39;14.20;;;11.13;;
2650;SDS011;1335;48.180;16.342;2024-03-08T12:59:07;17.30;;;11.83;;
2650;SDS011;1335;48.180;16.342;2024-03-08T13:01:35;15.37;;;11.77;;
2650;SDS011;1335;48.180;16.342;2024-03-08T13:04:03;12.47;;;10.07;;
2650;SDS011;1335;48.180;16.342;2024-03-08T13:06:31;13.60;;;10.83;;
2650;SDS011;1335;48.180;16.342;2024-03-08T13:08:59;13.37;;;10.40;;
2650;SDS011;1335;48.180;16.342;2024-03-08T13:11:33;14.47;;;11.23;;
2650;SDS011;1335;48.180;16.342;2024-03-08T13:14:02;13.23;;;11.00;;
2650;SDS011;1335;48.180;16.342;2024-03-08T13:16:30;15.20;;;10.43;;
2650;SDS011;1335;48.180;16.342;2024-03-08T13:18:59;14.37;;;9.80;;
2650;SDS011;1335;48.180;16.342;2024-03-08T13:21:27;12.93;;;8.77;;
2650;SDS011;1335;48.180;16.342;2024-03-08T13:23:55;12.67;;;9.90;;
2650;SDS011;1335;48.180;16.342;2024-03-08T13:26:24;13.23;;;10.43;;
2650;SDS011;1335;48.180;16.342;2024-03-08T13:28:59;12.70;;;9.13;;
2650;SDS011;1335;48.180;16.342;2024-03-08T13:31:26;13.03;;;10.27;;
2650;SDS011;1335;48.180;16.342;2024-03-08T13:33:53;15.70;;;10.60;;
2650;SDS011;1335;48.180;16.342;2024-03-08T13:36:23;14.13;;;9.97;;
2650;SDS011;1335;48.180;16.342;2024-03-08T13:38:54;13.00;;;10.27;;
2650;SDS011;1335;48.180;16.342;2024-03-08T13:41:24;13.30;;;10.23;;
2650;SDS011;1335;48.180;16.342;2024-03-08T13:43:51;12.63;;;8.93;;
2650;SDS011;1335;48.180;16.342;2024-03-08T13:46:22;11.30;;;9.10;;
2650;SDS011;1335;48.180;16.342;2024-03-08T13:48:51;12.93;;;10.23;;
2650;SDS011;1335;48.180;16.342;2024-03-08T13:51:19;10.80;;;8.60;;
2650;SDS011;1335;48.180;16.342;2024-03-08T13:53:47;12.20;;;9.33;;
2650;SDS011;1335;48.180;16.342;2024-03-08T13:56:15;14.13;;;10.47;;
2650;SDS011;1335;48.180;16.342;2024-03-08T13:58:42;14.73;;;10.93;;
2650;SDS011;1335;48.180;16.342;2024-03-08T14:01:10;15.93;;;10.30;;
2650;SDS011;1335;48.180;16.342;2024-03-08T14:03:39;13.97;;;11.07;;
2650;SDS011;1335;48.180;16.342;2024-03-08T14:06:06;12.33;;;9.67;;
2650;SDS011;1335;48.180;16.342;2024-03-08T14:08:34;13.50;;;10.50;;
2650;SDS011;1335;48.180;16.342;2024-03-08T14:11:03;16.83;;;11.10;;
2650;SDS011;1335;48.180;16.342;2024-03-08T14:13:38;16.77;;;12.40;;
2650;SDS011;1335;48.180;16.342;2024-03-08T14:16:07;14.27;;;10.93;;
2650;SDS011;1335;48.180;16.342;2024-03-08T14:18:35;15.17;;;10.97;;
2650;SDS011;1335;48.180;16.342;2024-03-08T14:21:04;13.43;;;11.27;;
2650;SDS011;1335;48.180;16.342;2024-03-08T14:23:33;13.90;;;10.90;;
2650;SDS011;1335;48.180;16.342;2024-03-08T14:26:01;14.47;;;10.73;;
2650;SDS011;1335;48.180;16.342;2024-03-08T14:28:29;15.87;;;12.57;;
2650;SDS011;1335;48.180;16.342;2024-03-08T14:30:57;15.63;;;11.57;;
2650;SDS011;1335;48.180;16.342;2024-03-08T14:33:27;16.60;;;11.53;;
2650;SDS011;1335;48.180;16.342;2024-03-08T14:35:55;14.47;;;10.77;;
2650;SDS011;1335;48.180;16.342;2024-03-08T14:38:23;14.87;;;11.50;;
2650;SDS011;1335;48.180;16.342;2024-03-08T14:40:52;14.60;;;10.10;;
2650;SDS011;1335;48.180;16.342;2024-03-08T14:43:20;14.20;;;11.43;;